createdAt,value
2023-09-21T00:01:14.514Z,23.06
2023-09-21T00:04:35.582Z,23.02
2023-09-21T00:07:58.125Z,23.01
2023-09-21T00:11:19.613Z,23.01
2023-09-21T00:14:42.328Z,22.99
2023-09-21T00:18:06.313Z,22.98
2023-09-21T00:21:27.000Z,22.97
2023-09-21T00:24:48.560Z,22.98
2023-09-21T00:28:09.264Z,22.95
2023-09-21T00:31:30.334Z,22.96
2023-09-21T00:34:52.778Z,22.95
2023-09-21T00:38:16.660Z,22.94
2023-09-21T00:41:37.588Z,22.94
2023-09-21T00:44:58.286Z,22.94
2023-09-21T00:48:26.640Z,22.93
2023-09-21T00:51:48.657Z,22.92
2023-09-21T00:55:11.812Z,22.95
2023-09-21T00:58:34.869Z,22.93
2023-09-21T01:01:56.157Z,22.92
2023-09-21T01:05:16.693Z,22.92
2023-09-21T01:08:38.455Z,22.92
2023-09-21T01:12:00.867Z,22.91
2023-09-21T01:15:22.823Z,22.92
2023-09-21T01:18:44.590Z,22.90
2023-09-21T01:22:13.019Z,22.88
2023-09-21T01:25:34.670Z,22.87
2023-09-21T01:28:59.598Z,22.87
2023-09-21T01:32:21.204Z,22.86
2023-09-21T01:35:44.595Z,22.87
2023-09-21T01:39:10.273Z,22.86
2023-09-21T01:42:32.898Z,22.87
2023-09-21T01:45:53.688Z,22.85
2023-09-21T01:49:14.803Z,22.85
2023-09-21T01:52:35.918Z,22.83
2023-09-21T01:55:57.028Z,22.85
2023-09-21T01:59:17.922Z,22.84
2023-09-21T02:02:39.423Z,22.84
2023-09-21T02:06:03.947Z,22.82
2023-09-21T02:09:28.416Z,22.81
2023-09-21T02:12:56.598Z,22.81
2023-09-21T02:16:17.723Z,22.83
2023-09-21T02:19:38.752Z,22.80
2023-09-21T02:23:01.718Z,22.80
2023-09-21T02:26:22.640Z,22.80
2023-09-21T02:29:43.591Z,22.77
2023-09-21T02:33:11.102Z,22.77
2023-09-21T02:36:32.738Z,22.76
2023-09-21T02:39:53.588Z,22.77
2023-09-21T02:43:16.292Z,22.77
2023-09-21T02:46:37.346Z,22.77
2023-09-21T02:49:59.086Z,22.77
2023-09-21T02:53:22.248Z,22.76
2023-09-21T02:56:44.339Z,22.76
2023-09-21T03:00:22.642Z,22.76
2023-09-21T03:03:43.375Z,22.76
2023-09-21T03:07:05.081Z,22.75
2023-09-21T03:10:27.102Z,22.75
2023-09-21T03:13:47.703Z,22.73
2023-09-21T03:17:09.033Z,22.73
2023-09-21T03:20:29.882Z,22.72
2023-09-21T03:23:53.835Z,22.72
2023-09-21T03:27:15.755Z,22.70
2023-09-21T03:30:36.694Z,22.69
2023-09-21T03:33:57.372Z,22.66
2023-09-21T03:37:18.256Z,22.66
2023-09-21T03:40:39.709Z,22.66
2023-09-21T03:44:00.621Z,22.66
2023-09-21T03:47:21.505Z,22.67
2023-09-21T03:50:43.874Z,22.64
2023-09-21T03:54:05.646Z,22.64
2023-09-21T03:57:26.428Z,22.66
2023-09-21T04:00:48.507Z,22.64
2023-09-21T04:04:19.014Z,22.63
2023-09-21T04:07:40.045Z,22.64
2023-09-21T04:11:01.208Z,22.62
2023-09-21T04:14:22.129Z,22.62
2023-09-21T04:17:43.700Z,22.64
2023-09-21T04:21:18.627Z,22.63
2023-09-21T04:24:40.975Z,22.66
2023-09-21T04:28:01.914Z,22.63
2023-09-21T04:31:23.061Z,22.63
2023-09-21T04:34:44.013Z,22.64
2023-09-21T04:38:05.002Z,22.62
2023-09-21T04:41:28.890Z,22.62
2023-09-21T04:44:49.473Z,22.61
2023-09-21T04:48:10.241Z,22.61
2023-09-21T04:51:31.133Z,22.61
2023-09-21T04:54:52.620Z,22.62
2023-09-21T04:58:13.564Z,22.61
2023-09-21T05:01:34.562Z,22.61
2023-09-21T05:04:55.352Z,22.60
2023-09-21T05:08:16.555Z,22.56
2023-09-21T05:11:40.085Z,22.58
2023-09-21T05:15:01.038Z,22.57
2023-09-21T05:18:22.174Z,22.57
2023-09-21T05:21:44.430Z,22.56
2023-09-21T05:25:06.289Z,22.56
2023-09-21T05:28:27.562Z,22.55
2023-09-21T05:31:49.369Z,22.55
2023-09-21T05:35:16.611Z,22.55
2023-09-21T05:38:38.384Z,22.55
2023-09-21T05:41:59.274Z,22.56
2023-09-21T05:45:19.762Z,22.54
2023-09-21T05:48:43.240Z,22.52
2023-09-21T05:52:09.554Z,22.49
2023-09-21T05:55:30.480Z,22.50
2023-09-21T05:58:51.562Z,22.51
2023-09-21T06:02:15.210Z,22.49
2023-09-21T06:05:36.379Z,22.48
2023-09-21T06:08:57.959Z,22.48
2023-09-21T06:12:18.967Z,22.47
2023-09-21T06:15:49.610Z,22.50
2023-09-21T06:19:12.280Z,22.51
2023-09-21T06:22:33.289Z,22.50
2023-09-21T06:25:55.334Z,22.50
2023-09-21T06:29:16.237Z,22.50
2023-09-21T06:32:37.218Z,22.52
2023-09-21T06:35:57.892Z,22.52
2023-09-21T06:39:20.209Z,22.53
2023-09-21T06:42:41.028Z,22.55
2023-09-21T06:46:01.886Z,22.54
2023-09-21T06:49:22.968Z,22.56
2023-09-21T06:52:46.071Z,22.57
2023-09-21T06:56:09.482Z,22.58
2023-09-21T06:59:30.769Z,22.60
2023-09-21T07:02:51.733Z,22.58
2023-09-21T07:06:13.113Z,22.58
2023-09-21T07:09:35.879Z,22.58
2023-09-21T07:12:57.966Z,22.58
2023-09-21T07:16:21.103Z,22.60
2023-09-21T07:19:41.618Z,22.58
2023-09-21T07:23:02.625Z,22.60
2023-09-21T07:26:23.346Z,22.58
2023-09-21T07:29:44.297Z,22.60
2023-09-21T07:33:07.581Z,22.63
2023-09-21T07:36:28.614Z,22.63
2023-09-21T07:39:49.988Z,22.79
2023-09-21T07:43:12.046Z,22.72
2023-09-21T07:46:34.235Z,22.73
2023-09-21T07:49:58.683Z,22.72
2023-09-21T07:53:20.378Z,22.71
2023-09-21T07:56:43.172Z,22.72
2023-09-21T08:00:06.056Z,22.69
2023-09-21T08:03:27.486Z,22.67
2023-09-21T08:06:48.395Z,22.67
2023-09-21T08:10:11.941Z,22.68
2023-09-21T08:13:34.683Z,22.69
2023-09-21T08:16:55.669Z,22.68
2023-09-21T08:20:16.571Z,22.66
2023-09-21T08:23:43.277Z,22.67
2023-09-21T08:27:05.015Z,22.65
2023-09-21T08:30:25.954Z,22.67
2023-09-21T08:33:47.441Z,22.68
2023-09-21T08:37:08.087Z,22.67
2023-09-21T08:40:33.333Z,22.69
2023-09-21T08:43:55.644Z,22.69
2023-09-21T08:47:33.175Z,22.70
2023-09-21T08:50:59.227Z,22.71
2023-09-21T08:54:21.387Z,22.69
2023-09-21T08:57:43.118Z,22.72
2023-09-21T09:01:03.863Z,22.72
2023-09-21T09:04:25.605Z,22.69
2023-09-21T09:07:46.539Z,22.69
2023-09-21T09:11:07.400Z,22.69
2023-09-21T09:14:28.404Z,22.69
2023-09-21T09:21:10.651Z,22.72
2023-09-21T09:24:32.991Z,22.75
2023-09-21T09:27:53.939Z,22.76
2023-09-21T09:31:16.082Z,22.76
2023-09-21T09:34:38.865Z,22.81
2023-09-21T09:38:00.134Z,22.79
2023-09-21T09:41:22.172Z,22.79
2023-09-21T09:44:47.961Z,22.79
2023-09-21T09:48:13.131Z,22.82
2023-09-21T09:51:45.866Z,22.80
2023-09-21T09:55:07.477Z,22.78
2023-09-21T09:58:29.190Z,22.78
2023-09-21T10:01:51.190Z,22.78
2023-09-21T10:05:13.621Z,22.83
2023-09-21T10:08:34.293Z,22.83
2023-09-21T10:11:56.934Z,22.88
2023-09-21T10:15:19.115Z,22.93
2023-09-21T10:18:41.707Z,23.00
2023-09-21T10:22:23.935Z,23.09
2023-09-21T10:25:46.851Z,23.14
2023-09-21T10:29:08.753Z,23.21
2023-09-21T10:32:42.987Z,23.18
2023-09-21T10:36:04.682Z,23.22
2023-09-21T10:39:31.416Z,23.25
2023-09-21T10:42:52.338Z,23.18
2023-09-21T10:46:22.684Z,23.21
2023-09-21T10:49:44.301Z,23.25
2023-09-21T10:53:05.158Z,23.29
2023-09-21T10:56:26.173Z,23.30
2023-09-21T11:00:01.987Z,23.34
2023-09-21T11:03:29.631Z,23.29
2023-09-21T11:06:51.307Z,23.30
2023-09-21T11:10:12.945Z,23.26
2023-09-21T11:13:33.679Z,23.28
2023-09-21T11:16:54.794Z,23.31
2023-09-21T11:20:20.668Z,23.34
2023-09-21T11:23:43.991Z,23.32
2023-09-21T11:27:10.268Z,23.35
2023-09-21T11:30:35.237Z,23.32
2023-09-21T11:34:04.711Z,23.29
2023-09-21T11:37:27.229Z,23.29
2023-09-21T11:40:50.805Z,23.29
2023-09-21T11:44:13.235Z,23.28
2023-09-21T11:47:34.688Z,23.29
2023-09-21T11:50:55.549Z,23.28
2023-09-21T11:54:16.631Z,23.32
2023-09-21T11:57:39.067Z,23.36
2023-09-21T12:01:05.796Z,23.37
2023-09-21T12:04:30.331Z,23.38
2023-09-21T12:07:51.440Z,23.41
2023-09-21T12:11:15.148Z,23.40
2023-09-21T12:14:37.396Z,23.38
2023-09-21T12:17:58.540Z,23.43
2023-09-21T12:21:21.835Z,23.58
2023-09-21T12:24:42.789Z,23.71
2023-09-21T12:28:04.669Z,23.77
2023-09-21T12:31:27.553Z,23.84
2023-09-21T12:34:52.316Z,23.82
2023-09-21T12:38:13.145Z,23.94
2023-09-21T12:41:34.243Z,23.88
2023-09-21T12:44:55.120Z,23.92
2023-09-21T12:48:16.273Z,24.18
2023-09-21T12:51:37.560Z,24.30
2023-09-21T12:54:59.066Z,24.24
2023-09-21T12:58:20.083Z,24.15
2023-09-21T13:01:40.961Z,24.08
2023-09-21T13:05:02.383Z,24.00
2023-09-21T13:08:23.414Z,24.01
2023-09-21T13:11:44.292Z,23.95
2023-09-21T13:15:06.667Z,23.97
2023-09-21T13:18:27.783Z,23.99
2023-09-21T13:21:48.706Z,24.02
2023-09-21T13:25:10.039Z,24.16
2023-09-21T13:28:31.196Z,24.35
2023-09-21T13:31:52.157Z,24.46
2023-09-21T13:35:14.045Z,24.57
2023-09-21T13:38:34.658Z,24.82
2023-09-21T13:41:57.619Z,24.89
2023-09-21T13:45:18.772Z,24.72
2023-09-21T13:48:40.208Z,24.53
2023-09-21T13:52:01.783Z,24.55
2023-09-21T13:55:25.560Z,24.49
2023-09-21T13:58:46.782Z,24.48
2023-09-21T14:02:13.550Z,24.40
2023-09-21T14:05:35.012Z,24.44
2023-09-21T14:08:56.685Z,24.46
2023-09-21T14:12:17.388Z,24.45
2023-09-21T14:15:38.609Z,24.63
2023-09-21T14:18:59.665Z,24.79
2023-09-21T14:22:20.583Z,24.80
2023-09-21T14:25:41.797Z,24.69
2023-09-21T14:29:03.093Z,24.68
2023-09-21T14:32:24.088Z,24.65
2023-09-21T14:35:44.850Z,24.82
2023-09-21T14:39:06.826Z,24.78
2023-09-21T14:42:27.722Z,24.77
2023-09-21T14:45:48.706Z,24.74
2023-09-21T14:49:09.381Z,24.76
2023-09-21T14:52:30.441Z,24.73
2023-09-21T14:55:52.494Z,24.61
2023-09-21T14:59:14.193Z,24.55
2023-09-21T15:02:38.353Z,24.62
2023-09-21T15:05:59.094Z,24.54
2023-09-21T15:09:20.817Z,24.46
2023-09-21T15:12:41.854Z,24.48
2023-09-21T15:16:03.063Z,24.43
2023-09-21T15:19:25.164Z,24.42
2023-09-21T15:22:45.851Z,24.44
2023-09-21T15:26:18.922Z,24.36
2023-09-21T15:29:43.959Z,24.36
2023-09-21T15:33:13.021Z,24.42
2023-09-21T15:36:43.625Z,24.44
2023-09-21T15:40:05.830Z,24.45
2023-09-21T15:43:26.447Z,24.47
2023-09-21T15:46:47.558Z,24.47
2023-09-21T15:50:08.565Z,24.25
2023-09-21T15:53:30.006Z,24.08
2023-09-21T15:56:51.089Z,24.00
2023-09-21T16:00:12.698Z,24.02
2023-09-21T16:03:33.927Z,24.04
2023-09-21T16:06:55.564Z,24.05
2023-09-21T16:10:16.328Z,24.04
2023-09-21T16:13:37.210Z,24.00
2023-09-21T16:17:00.229Z,23.98
2023-09-21T16:20:24.043Z,23.98
2023-09-21T16:23:46.434Z,23.98
2023-09-21T16:27:07.425Z,23.96
2023-09-21T16:30:28.674Z,23.94
2023-09-21T16:33:49.214Z,23.87
2023-09-21T16:37:10.258Z,23.83
2023-09-21T16:40:31.601Z,23.85
2023-09-21T16:43:52.272Z,23.85
2023-09-21T16:47:14.605Z,23.85
2023-09-21T16:50:36.413Z,23.81
2023-09-21T16:53:59.169Z,23.81
2023-09-21T16:57:20.280Z,23.90
2023-09-21T17:00:41.295Z,23.84
2023-09-21T17:04:02.500Z,23.72
2023-09-21T17:07:23.169Z,23.70
2023-09-21T17:10:44.219Z,23.72
2023-09-21T17:14:05.209Z,23.69
2023-09-21T17:17:26.116Z,23.68
2023-09-21T17:20:48.800Z,23.66
2023-09-21T17:24:09.998Z,23.65
2023-09-21T17:27:31.037Z,23.60
2023-09-21T17:30:51.738Z,23.59
2023-09-21T17:34:12.502Z,23.57
2023-09-21T17:37:37.066Z,23.54
2023-09-21T17:40:57.942Z,23.53
2023-09-21T17:44:18.748Z,23.46
2023-09-21T17:47:39.748Z,23.40
2023-09-21T17:51:07.019Z,23.38
2023-09-21T17:54:28.625Z,23.37
2023-09-21T17:57:49.869Z,23.36
2023-09-21T18:01:14.140Z,23.37
2023-09-21T18:04:35.266Z,23.30
2023-09-21T18:07:56.360Z,23.32
2023-09-21T18:11:20.833Z,23.32
2023-09-21T18:14:41.993Z,23.32
2023-09-21T18:18:04.481Z,23.28
2023-09-21T18:21:26.115Z,23.30
2023-09-21T18:24:46.783Z,23.27
2023-09-21T18:28:07.545Z,23.27
2023-09-21T18:31:28.842Z,23.28
2023-09-21T18:34:49.573Z,23.29
2023-09-21T18:38:10.556Z,23.30
2023-09-21T18:41:31.705Z,23.27
2023-09-21T18:44:52.777Z,23.25
2023-09-21T18:48:16.600Z,23.21
2023-09-21T18:51:38.248Z,23.21
2023-09-21T18:54:59.397Z,23.20
2023-09-21T18:58:21.895Z,23.24
2023-09-21T19:01:43.056Z,23.20
2023-09-21T19:05:04.367Z,23.20
2023-09-21T19:08:26.014Z,23.17
2023-09-21T19:11:47.099Z,23.16
2023-09-21T19:15:10.177Z,23.13
2023-09-21T19:18:31.907Z,23.18
2023-09-21T19:21:53.400Z,23.13
2023-09-21T19:25:14.867Z,23.13
2023-09-21T19:28:35.874Z,23.12
2023-09-21T19:31:56.839Z,23.11
2023-09-21T19:35:17.478Z,23.09
2023-09-21T19:38:38.156Z,23.07
2023-09-21T19:41:59.180Z,23.07
2023-09-21T19:45:20.334Z,23.08
2023-09-21T19:48:41.913Z,23.09
2023-09-21T19:52:02.692Z,23.08
2023-09-21T19:55:23.299Z,23.06
2023-09-21T19:58:44.066Z,23.03
2023-09-21T20:02:05.131Z,23.01
2023-09-21T20:05:26.372Z,23.01
2023-09-21T20:08:48.931Z,23.03
2023-09-21T20:12:12.022Z,23.05
2023-09-21T20:15:34.855Z,23.03
2023-09-21T20:18:56.557Z,23.03
2023-09-21T20:22:18.105Z,23.05
2023-09-21T20:25:40.235Z,23.05
2023-09-21T20:29:01.722Z,23.00
2023-09-21T20:32:26.381Z,23.01
2023-09-21T20:35:47.055Z,23.02
2023-09-21T20:39:08.175Z,22.99
2023-09-21T20:42:29.116Z,22.97
2023-09-21T20:45:49.925Z,22.97
2023-09-21T20:49:11.965Z,22.96
2023-09-21T20:52:33.516Z,22.97
2023-09-21T20:55:54.653Z,22.94
2023-09-21T20:59:15.568Z,22.95
2023-09-21T21:02:37.570Z,22.92
2023-09-21T21:05:58.216Z,22.91
2023-09-21T21:09:18.985Z,22.88
2023-09-21T21:12:40.256Z,22.87
2023-09-21T21:16:01.230Z,22.88
2023-09-21T21:19:22.256Z,22.86
2023-09-21T21:22:43.210Z,22.87
2023-09-21T21:26:04.224Z,22.83
2023-09-21T21:29:25.226Z,22.83
2023-09-21T21:32:45.876Z,22.84
2023-09-21T21:36:06.945Z,22.85
2023-09-21T21:39:27.640Z,22.85
2023-09-21T21:42:48.784Z,22.84
2023-09-21T21:46:11.047Z,22.82
2023-09-21T21:49:32.384Z,22.81
2023-09-21T21:52:53.162Z,22.78
2023-09-21T21:56:14.120Z,22.81
2023-09-21T21:59:34.996Z,22.78
2023-09-21T22:02:56.983Z,22.77
2023-09-21T22:06:17.771Z,22.77
2023-09-21T22:09:42.124Z,22.75
2023-09-21T22:13:03.652Z,22.76
2023-09-21T22:16:25.599Z,22.73
2023-09-21T22:19:46.825Z,22.72
2023-09-21T22:23:11.446Z,22.68
2023-09-21T22:26:32.354Z,22.65
2023-09-21T22:29:53.452Z,22.66
2023-09-21T22:33:15.361Z,22.65
2023-09-21T22:36:36.249Z,22.63
2023-09-21T22:39:57.107Z,22.58
2023-09-21T22:43:17.952Z,22.60
2023-09-21T22:46:38.799Z,22.57
2023-09-21T22:49:59.873Z,22.60
2023-09-21T22:53:21.774Z,22.61
2023-09-21T22:56:42.466Z,22.61
2023-09-21T23:00:11.269Z,22.57
2023-09-21T23:03:32.389Z,22.57
2023-09-21T23:06:53.417Z,22.56
2023-09-21T23:10:15.354Z,22.53
2023-09-21T23:13:36.966Z,22.52
2023-09-21T23:16:57.566Z,22.54
2023-09-21T23:20:20.944Z,22.55
2023-09-21T23:23:44.044Z,22.53
2023-09-21T23:27:05.635Z,22.52
2023-09-21T23:30:26.798Z,22.49
2023-09-21T23:33:48.974Z,22.47
2023-09-21T23:37:12.778Z,22.47
2023-09-21T23:40:33.845Z,22.46
2023-09-21T23:43:54.818Z,22.44
2023-09-21T23:47:17.366Z,22.44
2023-09-21T23:50:38.161Z,22.47
2023-09-21T23:53:59.782Z,22.44
2023-09-21T23:57:20.426Z,22.46
